Time;durP1;ratioP1;P1;durP2;ratioP2;P2;SDS_P1;SDS_P2;PMS_P1;PMS_P2;Temp;Humidity;BMP_temperature;BMP_pressure;BME280_temperature;BME280_humidity;BME280_pressure;Samples;Min_cycle;Max_cycle;Signal;HPM_P1;HPM_P2
2023/06/27 00:02:22;;;;;;;6.85;2.65;;;;;;;;;;4878096;29;20861;-60
2023/06/27 00:04:48;;;;;;;8.32;2.83;;;;;;;;;;4877876;29;20681;-60
2023/06/27 00:07:14;;;;;;;8.38;2.33;;;;;;;;;;4879463;29;20059;-60
2023/06/27 00:09:40;;;;;;;8.10;2.50;;;;;;;;;;4879834;29;20036;-60
2023/06/27 00:12:09;;;;;;;6.80;2.28;;;;;;;;;;4878700;29;20545;-60
2023/06/27 00:14:37;;;;;;;11.95;2.67;;;;;;;;;;4880122;29;20066;-60
2023/06/27 00:17:04;;;;;;;7.47;2.10;;;;;;;;;;4878493;29;20040;-60
2023/06/27 00:19:31;;;;;;;7.38;2.40;;;;;;;;;;4879165;29;20032;-60
2023/06/27 00:21:57;;;;;;;6.95;2.60;;;;;;;;;;4877842;29;20127;-60
2023/06/27 00:24:23;;;;;;;4.57;2.10;;;;;;;;;;4879370;29;20155;-60
2023/06/27 00:26:50;;;;;;;7.85;2.63;;;;;;;;;;4878110;29;20151;-60
2023/06/27 00:29:16;;;;;;;6.88;2.60;;;;;;;;;;4880179;29;20051;-60
2023/06/27 00:31:42;;;;;;;7.60;2.63;;;;;;;;;;4878922;29;20035;-60
2023/06/27 00:34:08;;;;;;;6.57;2.88;;;;;;;;;;4879203;29;20491;-60
2023/06/27 00:36:34;;;;;;;4.05;2.22;;;;;;;;;;4878943;29;21792;-60
2023/06/27 00:39:00;;;;;;;9.65;2.75;;;;;;;;;;4877567;29;20040;-60
2023/06/27 00:41:26;;;;;;;8.00;2.90;;;;;;;;;;4878175;29;20040;-60
2023/06/27 00:43:52;;;;;;;5.60;2.60;;;;;;;;;;4879005;29;20032;-60
2023/06/27 00:46:26;;;;;;;6.32;2.13;;;;;;;;;;4879396;29;20052;-60
2023/06/27 00:48:52;;;;;;;7.93;2.80;;;;;;;;;;4878170;29;20539;-60
2023/06/27 00:51:18;;;;;;;7.53;2.50;;;;;;;;;;4879822;29;20078;-60
2023/06/27 00:53:44;;;;;;;7.22;3.17;;;;;;;;;;4879825;29;20677;-60
2023/06/27 00:56:10;;;;;;;6.07;2.58;;;;;;;;;;4879321;29;20044;-60
2023/06/27 00:58:37;;;;;;;7.60;2.45;;;;;;;;;;4881465;29;20035;-60
2023/06/27 01:01:04;;;;;;;8.10;2.33;;;;;;;;;;4880175;29;20031;-60
2023/06/27 01:03:32;;;;;;;7.25;2.65;;;;;;;;;;4877756;29;20646;-60
2023/06/27 01:05:58;;;;;;;8.35;2.67;;;;;;;;;;4879552;29;20036;-60
2023/06/27 01:08:29;;;;;;;7.80;2.65;;;;;;;;;;4879495;29;20487;-60
2023/06/27 01:11:11;;;;;;;8.60;2.47;;;;;;;;;;4880226;29;20036;-60
2023/06/27 01:13:40;;;;;;;7.55;2.60;;;;;;;;;;4877849;29;20055;-60
2023/06/27 01:16:06;;;;;;;7.68;2.33;;;;;;;;;;4879826;29;20054;-60
2023/06/27 01:18:33;;;;;;;8.20;2.67;;;;;;;;;;4878358;29;20087;-60
2023/06/27 01:21:00;;;;;;;10.15;2.65;;;;;;;;;;4879753;29;20031;-60
2023/06/27 01:23:44;;;;;;;6.18;2.50;;;;;;;;;;4878761;29;20032;-60
2023/06/27 01:26:12;;;;;;;6.57;2.22;;;;;;;;;;4880516;29;21442;-60
2023/06/27 01:28:38;;;;;;;5.70;2.65;;;;;;;;;;4877960;29;20040;-60
2023/06/27 01:31:04;;;;;;;7.80;2.50;;;;;;;;;;4877903;29;20122;-60
2023/06/27 01:33:48;;;;;;;6.00;2.60;;;;;;;;;;4877849;29;20056;-60
2023/06/27 01:36:19;;;;;;;7.30;2.40;;;;;;;;;;4878883;29;20036;-60
2023/06/27 01:38:49;;;;;;;5.55;2.42;;;;;;;;;;4877581;29;20051;-60
2023/06/27 01:41:17;;;;;;;6.13;2.40;;;;;;;;;;4877212;29;20051;-60
2023/06/27 01:43:44;;;;;;;7.68;2.83;;;;;;;;;;4879858;29;20031;-60
2023/06/27 01:46:11;;;;;;;7.95;2.78;;;;;;;;;;4879122;29;20036;-60
2023/06/27 01:48:38;;;;;;;9.63;1.98;;;;;;;;;;4878181;29;20040;-60
2023/06/27 01:51:08;;;;;;;6.57;2.70;;;;;;;;;;4878421;29;20163;-60
2023/06/27 01:53:34;;;;;;;6.97;2.00;;;;;;;;;;4879627;29;20499;-59
2023/06/27 01:56:00;;;;;;;7.47;2.88;;;;;;;;;;4878559;29;20139;-60
2023/06/27 01:58:26;;;;;;;4.75;2.10;;;;;;;;;;4878887;29;20028;-60
2023/06/27 02:00:52;;;;;;;7.75;2.53;;;;;;;;;;4878645;29;20036;-60
2023/06/27 02:03:18;;;;;;;4.55;2.10;;;;;;;;;;4876574;29;20075;-60
2023/06/27 02:05:44;;;;;;;7.60;2.30;;;;;;;;;;4878072;29;20075;-60
2023/06/27 02:08:10;;;;;;;5.28;1.83;;;;;;;;;;4878610;29;20113;-60
2023/06/27 02:10:36;;;;;;;5.57;2.33;;;;;;;;;;4879134;29;20059;-60
2023/06/27 02:13:03;;;;;;;7.82;2.42;;;;;;;;;;4878301;29;20032;-60
2023/06/27 02:15:30;;;;;;;6.47;2.75;;;;;;;;;;4873982;29;20051;-60
2023/06/27 02:17:56;;;;;;;5.60;2.22;;;;;;;;;;4872813;29;20028;-60
2023/06/27 02:20:22;;;;;;;7.18;2.25;;;;;;;;;;4873818;29;20052;-60
2023/06/27 02:22:48;;;;;;;6.25;2.42;;;;;;;;;;4874574;29;20080;-60
2023/06/27 02:25:15;;;;;;;4.32;1.90;;;;;;;;;;4873445;29;20063;-60
2023/06/27 02:27:41;;;;;;;5.93;2.15;;;;;;;;;;4873843;29;20032;-60
2023/06/27 02:30:07;;;;;;;5.50;2.35;;;;;;;;;;4874934;29;20044;-60
2023/06/27 02:32:33;;;;;;;10.02;2.20;;;;;;;;;;4873880;29;20456;-60
2023/06/27 02:34:59;;;;;;;7.30;2.75;;;;;;;;;;4872544;29;20029;-59
2023/06/27 02:37:25;;;;;;;7.63;2.38;;;;;;;;;;4874234;29;20119;-60
2023/06/27 02:39:52;;;;;;;7.38;2.20;;;;;;;;;;4873327;29;20107;-60
2023/06/27 02:42:18;;;;;;;6.40;1.90;;;;;;;;;;4873642;29;20036;-60
2023/06/27 02:44:44;;;;;;;5.93;2.03;;;;;;;;;;4877549;29;20063;-60
2023/06/27 02:47:11;;;;;;;6.25;2.53;;;;;;;;;;4876243;29;20047;-60
2023/06/27 02:49:37;;;;;;;8.02;2.30;;;;;;;;;;4872258;29;20047;-59
2023/06/27 02:52:03;;;;;;;6.43;2.30;;;;;;;;;;4876767;29;20036;-60
2023/06/27 02:54:29;;;;;;;8.38;2.58;;;;;;;;;;4877491;29;20044;-60
2023/06/27 02:56:55;;;;;;;6.75;2.60;;;;;;;;;;4876992;29;20033;-60
2023/06/27 02:59:21;;;;;;;6.68;2.28;;;;;;;;;;4877659;29;20036;-60
2023/06/27 03:01:47;;;;;;;7.38;2.20;;;;;;;;;;4877718;29;20047;-60
2023/06/27 03:04:19;;;;;;;4.47;1.90;;;;;;;;;;4858838;29;20513;-60
2023/06/27 03:06:46;;;;;;;4.72;1.92;;;;;;;;;;4876410;29;20060;-60
2023/06/27 03:09:12;;;;;;;5.05;2.33;;;;;;;;;;4877240;29;20040;-60
2023/06/27 03:11:38;;;;;;;4.72;2.35;;;;;;;;;;4877723;29;22013;-60
2023/06/27 03:14:04;;;;;;;6.68;2.20;;;;;;;;;;4877146;29;20428;-60
2023/06/27 03:16:30;;;;;;;5.22;2.03;;;;;;;;;;4876989;29;20484;-59
2023/06/27 03:18:56;;;;;;;4.47;1.95;;;;;;;;;;4877058;29;20706;-60
2023/06/27 03:21:22;;;;;;;6.97;2.47;;;;;;;;;;4876315;29;21235;-60
2023/06/27 03:23:48;;;;;;;6.25;1.98;;;;;;;;;;4877368;29;21821;-60
2023/06/27 03:26:14;;;;;;;7.13;2.42;;;;;;;;;;4877482;29;20048;-60
2023/06/27 03:28:40;;;;;;;9.18;2.65;;;;;;;;;;4877317;29;20056;-60
2023/06/27 03:31:06;;;;;;;5.65;2.10;;;;;;;;;;4877493;29;20115;-60
2023/06/27 03:33:33;;;;;;;5.63;2.50;;;;;;;;;;4876627;29;20044;-60
2023/06/27 03:35:59;;;;;;;8.90;2.20;;;;;;;;;;4877055;29;20040;-60
2023/06/27 03:38:25;;;;;;;6.95;2.33;;;;;;;;;;4877309;29;20487;-60
2023/06/27 03:40:51;;;;;;;7.38;2.45;;;;;;;;;;4876652;29;20032;-60
2023/06/27 03:43:17;;;;;;;5.03;2.33;;;;;;;;;;4877430;29;20039;-60
2023/06/27 03:45:43;;;;;;;7.03;2.20;;;;;;;;;;4875696;29;20042;-60
2023/06/27 03:48:09;;;;;;;5.80;1.98;;;;;;;;;;4876476;29;20162;-60
2023/06/27 03:50:36;;;;;;;6.93;1.98;;;;;;;;;;4863367;29;20032;-60
2023/06/27 03:53:03;;;;;;;5.63;2.00;;;;;;;;;;4876739;29;20170;-59
2023/06/27 03:55:29;;;;;;;4.45;1.90;;;;;;;;;;4874818;29;20122;-59
2023/06/27 03:57:55;;;;;;;10.07;2.55;;;;;;;;;;4875707;29;20047;-60
2023/06/27 04:00:21;;;;;;;5.35;1.75;;;;;;;;;;4876107;29;21744;-59
2023/06/27 04:02:47;;;;;;;8.05;3.15;;;;;;;;;;4875677;29;20040;-60
2023/06/27 04:05:13;;;;;;;6.57;2.47;;;;;;;;;;4874628;29;20036;-60
2023/06/27 04:07:41;;;;;;;8.77;2.55;;;;;;;;;;4875535;29;20103;-60
2023/06/27 04:10:07;;;;;;;8.15;2.25;;;;;;;;;;4876002;29;20223;-60
2023/06/27 04:12:33;;;;;;;5.93;2.38;;;;;;;;;;4875832;29;20063;-60
2023/06/27 04:15:00;;;;;;;7.25;2.47;;;;;;;;;;4875976;29;20833;-60
2023/06/27 04:17:26;;;;;;;6.10;2.22;;;;;;;;;;4875075;29;20032;-60
2023/06/27 04:19:52;;;;;;;5.25;2.03;;;;;;;;;;4876423;29;20724;-60
2023/06/27 04:22:18;;;;;;;9.82;2.30;;;;;;;;;;4876844;29;20744;-60
2023/06/27 04:24:44;;;;;;;5.95;1.88;;;;;;;;;;4873215;29;20043;-60
2023/06/27 04:27:10;;;;;;;5.40;1.60;;;;;;;;;;4874003;29;20535;-60
2023/06/27 04:29:36;;;;;;;6.60;2.00;;;;;;;;;;4874480;29;20048;-60
2023/06/27 04:32:03;;;;;;;9.48;1.92;;;;;;;;;;4874866;29;20928;-60
2023/06/27 04:34:29;;;;;;;6.47;1.80;;;;;;;;;;4875218;29;20028;-60
2023/06/27 04:36:55;;;;;;;6.75;1.80;;;;;;;;;;4873049;29;20673;-60
2023/06/27 04:39:21;;;;;;;5.30;1.75;;;;;;;;;;4874500;29;20040;-60
2023/06/27 04:41:47;;;;;;;6.82;2.05;;;;;;;;;;4873627;29;20170;-60
2023/06/27 04:44:13;;;;;;;6.03;1.70;;;;;;;;;;4874649;29;20492;-59
2023/06/27 04:46:39;;;;;;;7.43;2.10;;;;;;;;;;4855477;29;20859;-59
2023/06/27 04:49:05;;;;;;;6.00;1.80;;;;;;;;;;4874667;29;20044;-59
2023/06/27 04:51:33;;;;;;;7.55;2.33;;;;;;;;;;4873578;29;20032;-59
2023/06/27 04:53:59;;;;;;;4.28;1.60;;;;;;;;;;4873329;29;20024;-59
2023/06/27 04:56:26;;;;;;;7.43;1.90;;;;;;;;;;4873903;29;20141;-60
2023/06/27 04:58:52;;;;;;;9.93;2.22;;;;;;;;;;4873743;29;20036;-60
2023/06/27 05:01:18;;;;;;;7.38;1.63;;;;;;;;;;4873691;29;20048;-59
2023/06/27 05:03:44;;;;;;;5.88;1.50;;;;;;;;;;4874466;29;20032;-59
2023/06/27 05:06:11;;;;;;;5.70;1.67;;;;;;;;;;4873857;29;20040;-60
2023/06/27 05:08:37;;;;;;;8.00;2.38;;;;;;;;;;4874993;29;20072;-59
2023/06/27 05:11:04;;;;;;;5.63;1.80;;;;;;;;;;4873758;29;20046;-59
2023/06/27 05:13:30;;;;;;;4.18;1.70;;;;;;;;;;4874537;29;20075;-60
2023/06/27 05:15:56;;;;;;;8.32;1.80;;;;;;;;;;4873879;29;20036;-60
2023/06/27 05:18:23;;;;;;;8.55;1.63;;;;;;;;;;4874604;29;20491;-60
2023/06/27 05:20:49;;;;;;;6.55;1.50;;;;;;;;;;4874259;29;20035;-60
2023/06/27 05:23:15;;;;;;;7.72;2.00;;;;;;;;;;4874591;29;20040;-60
2023/06/27 05:25:41;;;;;;;6.70;1.70;;;;;;;;;;4873808;29;20035;-60
2023/06/27 05:28:08;;;;;;;7.65;1.70;;;;;;;;;;4874837;29;20041;-60
2023/06/27 05:30:34;;;;;;;7.70;1.77;;;;;;;;;;4873665;29;20067;-60
2023/06/27 05:33:04;;;;;;;8.77;1.60;;;;;;;;;;4873919;29;20126;-60
2023/06/27 05:35:30;;;;;;;8.32;2.42;;;;;;;;;;4873385;29;20736;-60
2023/06/27 05:37:56;;;;;;;7.47;1.95;;;;;;;;;;4873311;29;21390;-60
2023/06/27 05:40:22;;;;;;;3.85;1.30;;;;;;;;;;4873771;29;21908;-60
2023/06/27 05:42:48;;;;;;;6.05;1.80;;;;;;;;;;4873650;29;20084;-60
2023/06/27 05:45:14;;;;;;;4.82;1.60;;;;;;;;;;4872525;29;20055;-60
2023/06/27 05:47:40;;;;;;;6.57;1.50;;;;;;;;;;4872963;29;20975;-60
2023/06/27 05:50:07;;;;;;;11.57;2.08;;;;;;;;;;4873667;29;20051;-61
2023/06/27 05:52:33;;;;;;;7.45;1.60;;;;;;;;;;4859201;29;20025;-61
2023/06/27 05:54:59;;;;;;;6.78;1.30;;;;;;;;;;4873073;29;20590;-61
2023/06/27 05:57:25;;;;;;;8.85;1.80;;;;;;;;;;4872354;29;20035;-61
2023/06/27 05:59:51;;;;;;;6.18;1.63;;;;;;;;;;4873721;29;20040;-61
2023/06/27 06:02:18;;;;;;;5.20;1.40;;;;;;;;;;4872888;29;20037;-62
2023/06/27 06:04:44;;;;;;;6.78;1.38;;;;;;;;;;4872796;29;20044;-62
2023/06/27 06:07:10;;;;;;;8.20;1.50;;;;;;;;;;4872529;29;20048;-62
2023/06/27 06:09:36;;;;;;;7.53;1.52;;;;;;;;;;4873176;29;20163;-62
2023/06/27 06:12:02;;;;;;;6.47;1.60;;;;;;;;;;4873115;29;20100;-62
2023/06/27 06:14:28;;;;;;;9.07;1.40;;;;;;;;;;4872800;29;20052;-62
2023/06/27 06:16:54;;;;;;;4.35;1.40;;;;;;;;;;4878528;29;20408;-62
2023/06/27 06:19:20;;;;;;;6.60;1.60;;;;;;;;;;4883554;29;20043;-62
2023/06/27 06:21:46;;;;;;;6.35;1.30;;;;;;;;;;4883536;29;20045;-62
2023/06/27 06:24:14;;;;;;;6.57;1.25;;;;;;;;;;4883423;29;20036;-61
2023/06/27 06:26:40;;;;;;;5.15;1.35;;;;;;;;;;4882253;29;20036;-62
2023/06/27 06:29:12;;;;;;;6.40;1.25;;;;;;;;;;4878660;29;20036;-62
2023/06/27 06:31:38;;;;;;;5.68;1.70;;;;;;;;;;4875621;29;20392;-62
2023/06/27 06:34:04;;;;;;;7.78;1.65;;;;;;;;;;4877757;29;21027;-61
2023/06/27 06:36:32;;;;;;;6.47;1.40;;;;;;;;;;4876814;29;20584;-62
2023/06/27 06:38:58;;;;;;;5.20;1.23;;;;;;;;;;4876793;29;20071;-62
2023/06/27 06:41:25;;;;;;;4.07;1.45;;;;;;;;;;4877518;29;20048;-62
2023/06/27 06:43:51;;;;;;;4.72;1.13;;;;;;;;;;4877545;29;20047;-62
2023/06/27 06:46:17;;;;;;;6.60;1.40;;;;;;;;;;4875921;29;20032;-62
2023/06/27 06:48:43;;;;;;;6.05;1.40;;;;;;;;;;4872029;29;20644;-62
2023/06/27 06:51:09;;;;;;;6.90;1.70;;;;;;;;;;4873295;29;20954;-61
2023/06/27 06:53:35;;;;;;;9.93;1.38;;;;;;;;;;4872882;29;20033;-62
2023/06/27 06:56:01;;;;;;;10.35;1.40;;;;;;;;;;4873902;29;20036;-61
2023/06/27 06:58:27;;;;;;;8.70;1.45;;;;;;;;;;4874098;29;20039;-63
2023/06/27 07:00:53;;;;;;;7.88;1.75;;;;;;;;;;4873436;29;20051;-64
2023/06/27 07:03:20;;;;;;;5.55;1.13;;;;;;;;;;4873791;29;20444;-64
2023/06/27 07:05:46;;;;;;;5.50;1.42;;;;;;;;;;4874298;29;20162;-64
2023/06/27 07:08:13;;;;;;;7.63;1.50;;;;;;;;;;4874457;29;20095;-64
2023/06/27 07:10:40;;;;;;;6.03;1.58;;;;;;;;;;4873903;29;20976;-64
2023/06/27 07:13:06;;;;;;;13.52;2.03;;;;;;;;;;4874905;29;20160;-64
2023/06/27 07:15:33;;;;;;;5.38;1.30;;;;;;;;;;4878044;29;20067;-64
2023/06/27 07:17:59;;;;;;;5.80;1.63;;;;;;;;;;4877864;29;20039;-64
2023/06/27 07:20:25;;;;;;;5.47;1.20;;;;;;;;;;4877218;29;20780;-64
2023/06/27 07:22:51;;;;;;;4.63;1.20;;;;;;;;;;4884713;29;20153;-64
2023/06/27 07:25:17;;;;;;;5.68;1.33;;;;;;;;;;4886966;29;20031;-64
2023/06/27 07:27:44;;;;;;;7.28;1.50;;;;;;;;;;4887523;29;20535;-64
2023/06/27 07:30:10;;;;;;;6.03;1.27;;;;;;;;;;4886004;29;20213;-64
2023/06/27 07:32:36;;;;;;;6.65;1.13;;;;;;;;;;4886082;29;20067;-64
2023/06/27 07:35:04;;;;;;;5.53;1.33;;;;;;;;;;4886404;29;20052;-64
2023/06/27 07:37:30;;;;;;;5.80;1.30;;;;;;;;;;4886007;29;20051;-64
2023/06/27 07:39:57;;;;;;;6.80;1.70;;;;;;;;;;4885630;29;20698;-64
2023/06/27 07:42:24;;;;;;;6.95;1.40;;;;;;;;;;4887041;29;20080;-64
2023/06/27 07:44:50;;;;;;;7.90;1.33;;;;;;;;;;4885681;29;20067;-64
2023/06/27 07:47:16;;;;;;;5.95;1.10;;;;;;;;;;4886329;29;20035;-64
2023/06/27 07:49:42;;;;;;;4.35;0.98;;;;;;;;;;4885979;29;20183;-64
2023/06/27 07:52:09;;;;;;;5.50;1.40;;;;;;;;;;4886452;29;20064;-64
2023/06/27 07:54:35;;;;;;;5.07;1.08;;;;;;;;;;4886042;29;20031;-64
2023/06/27 07:57:02;;;;;;;5.88;1.33;;;;;;;;;;4885779;29;20036;-64
2023/06/27 07:59:28;;;;;;;5.68;1.40;;;;;;;;;;4884595;29;20040;-64
2023/06/27 08:01:55;;;;;;;8.27;1.27;;;;;;;;;;4885847;29;20078;-64
2023/06/27 08:04:21;;;;;;;7.70;0.90;;;;;;;;;;4886379;29;20036;-64
2023/06/27 08:06:47;;;;;;;6.47;1.27;;;;;;;;;;4886118;29;20159;-64
2023/06/27 08:09:13;;;;;;;2.55;0.75;;;;;;;;;;4884524;29;20032;-64
2023/06/27 08:11:40;;;;;;;4.57;1.02;;;;;;;;;;4886079;29;20036;-64
2023/06/27 08:14:06;;;;;;;4.35;1.00;;;;;;;;;;4883156;29;20127;-64
2023/06/27 08:16:33;;;;;;;5.80;1.33;;;;;;;;;;4881277;29;20763;-64
2023/06/27 08:18:59;;;;;;;11.23;1.95;;;;;;;;;;4881847;29;20028;-64
2023/06/27 08:21:25;;;;;;;8.82;1.70;;;;;;;;;;4882105;29;20077;-64
2023/06/27 08:23:51;;;;;;;7.03;1.30;;;;;;;;;;4881261;29;21919;-64
2023/06/27 08:26:18;;;;;;;3.38;1.05;;;;;;;;;;4881348;29;20085;-64
2023/06/27 08:28:44;;;;;;;5.75;1.63;;;;;;;;;;4867495;29;20542;-64
2023/06/27 08:31:13;;;;;;;7.47;1.40;;;;;;;;;;4881361;29;20657;-64
2023/06/27 08:33:40;;;;;;;6.28;1.40;;;;;;;;;;4880085;29;20043;-64
2023/06/27 08:36:06;;;;;;;4.95;1.00;;;;;;;;;;4881143;29;20024;-64
2023/06/27 08:38:32;;;;;;;4.28;0.95;;;;;;;;;;4881101;29;20480;-64
2023/06/27 08:41:01;;;;;;;10.02;1.55;;;;;;;;;;4881306;29;20068;-64
2023/06/27 08:43:27;;;;;;;6.63;1.50;;;;;;;;;;4880291;29;20032;-64
2023/06/27 08:45:54;;;;;;;4.80;1.20;;;;;;;;;;4880926;29;20032;-64
2023/06/27 08:48:20;;;;;;;7.22;1.77;;;;;;;;;;4881285;29;20119;-64
2023/06/27 08:50:50;;;;;;;6.88;1.27;;;;;;;;;;4881483;29;20075;-64
2023/06/27 08:53:17;;;;;;;5.55;1.42;;;;;;;;;;4879940;29;20032;-64
2023/06/27 08:56:02;;;;;;;5.35;1.52;;;;;;;;;;4880933;29;20067;-64
2023/06/27 08:58:28;;;;;;;6.03;1.20;;;;;;;;;;4879734;29;20032;-64
2023/06/27 09:00:55;;;;;;;7.32;1.60;;;;;;;;;;4879989;29;20115;-64
2023/06/27 09:03:21;;;;;;;8.48;1.52;;;;;;;;;;4870192;29;20118;-63
2023/06/27 09:05:48;;;;;;;12.63;2.05;;;;;;;;;;4868064;29;20044;-63
2023/06/27 09:08:14;;;;;;;4.20;1.30;;;;;;;;;;4873516;29;20040;-63
2023/06/27 09:10:41;;;;;;;5.90;0.88;;;;;;;;;;4870347;29;20043;-63
2023/06/27 09:13:07;;;;;;;6.70;1.17;;;;;;;;;;4871084;29;20036;-64
2023/06/27 09:15:34;;;;;;;3.88;1.08;;;;;;;;;;4869591;29;20056;-63
2023/06/27 09:18:00;;;;;;;5.78;1.13;;;;;;;;;;4870477;29;20127;-64
2023/06/27 09:20:26;;;;;;;7.60;1.77;;;;;;;;;;4870856;29;20036;-61
2023/06/27 09:22:52;;;;;;;3.55;0.80;;;;;;;;;;4871288;29;20072;-61
2023/06/27 09:25:22;;;;;;;7.97;1.08;;;;;;;;;;4871261;29;21742;-63
2023/06/27 09:27:48;;;;;;;12.23;1.58;;;;;;;;;;4871127;29;20044;-64
2023/06/27 09:30:14;;;;;;;5.43;1.27;;;;;;;;;;4852207;29;20127;-62
2023/06/27 09:32:57;;;;;;;8.88;1.48;;;;;;;;;;4870439;29;20048;-62
2023/06/27 09:35:24;;;;;;;5.28;1.00;;;;;;;;;;4869638;29;20150;-62
2023/06/27 09:37:50;;;;;;;5.72;1.10;;;;;;;;;;4873577;29;20039;-62
2023/06/27 09:40:20;;;;;;;4.20;1.00;;;;;;;;;;4873900;29;20680;-61
2023/06/27 09:42:50;;;;;;;7.63;1.27;;;;;;;;;;4873425;29;20028;-62
2023/06/27 09:45:16;;;;;;;8.90;1.38;;;;;;;;;;4872989;29;20036;-62
2023/06/27 09:47:42;;;;;;;6.13;1.48;;;;;;;;;;4874120;29;20068;-62
2023/06/27 09:50:09;;;;;;;7.28;1.23;;;;;;;;;;4870051;29;20047;-62
2023/06/27 09:52:35;;;;;;;5.63;1.30;;;;;;;;;;4872078;29;20044;-62
2023/06/27 09:55:01;;;;;;;3.88;1.10;;;;;;;;;;4872115;29;20047;-62
2023/06/27 09:57:30;;;;;;;5.90;1.10;;;;;;;;;;4869504;29;20036;-62
2023/06/27 09:59:59;;;;;;;7.10;1.10;;;;;;;;;;4869343;29;20595;-62
2023/06/27 10:02:29;;;;;;;2.83;0.70;;;;;;;;;;4872489;29;20039;-62
2023/06/27 10:04:55;;;;;;;8.63;1.52;;;;;;;;;;4871563;29;20028;-62
2023/06/27 10:07:24;;;;;;;5.07;1.02;;;;;;;;;;4872405;29;20140;-62
2023/06/27 10:09:50;;;;;;;4.93;0.90;;;;;;;;;;4871014;29;20475;-62
2023/06/27 10:12:17;;;;;;;5.18;1.00;;;;;;;;;;4871738;29;20821;-62
2023/06/27 10:14:48;;;;;;;7.10;1.27;;;;;;;;;;4871552;29;20056;-62
2023/06/27 10:17:21;;;;;;;5.25;1.00;;;;;;;;;;4871318;29;20087;-62
2023/06/27 10:19:47;;;;;;;5.50;1.50;;;;;;;;;;4872121;29;20925;-62
2023/06/27 10:22:15;;;;;;;3.17;1.20;;;;;;;;;;4872806;29;20899;-62
2023/06/27 10:24:42;;;;;;;3.38;0.75;;;;;;;;;;4872230;29;20032;-62
2023/06/27 10:27:09;;;;;;;5.03;1.10;;;;;;;;;;4872138;29;20043;-62
2023/06/27 10:29:40;;;;;;;4.57;1.10;;;;;;;;;;4872122;29;20146;-62
2023/06/27 10:32:08;;;;;;;3.55;0.90;;;;;;;;;;4872518;29;20424;-62
2023/06/27 10:34:43;;;;;;;9.55;1.50;;;;;;;;;;4858589;29;20074;-62
2023/06/27 10:37:21;;;;;;;6.35;1.85;;;;;;;;;;4872375;29;20070;-62
2023/06/27 10:40:09;;;;;;;5.15;1.20;;;;;;;;;;4872818;29;20065;-62
2023/06/27 10:42:35;;;;;;;6.28;1.17;;;;;;;;;;4872159;29;20036;-62
2023/06/27 10:45:05;;;;;;;5.68;1.15;;;;;;;;;;4859009;29;21167;-62
2023/06/27 10:47:35;;;;;;;5.80;1.38;;;;;;;;;;4871851;29;20028;-62
2023/06/27 10:50:02;;;;;;;5.65;1.23;;;;;;;;;;4872798;29;20032;-62
2023/06/27 10:52:28;;;;;;;5.07;1.02;;;;;;;;;;4871935;29;20166;-62
2023/06/27 10:55:12;;;;;;;5.57;1.58;;;;;;;;;;4872771;29;20155;-62
2023/06/27 10:57:38;;;;;;;5.43;1.33;;;;;;;;;;4868490;29;20128;-62
2023/06/27 11:00:14;;;;;;;4.50;1.17;;;;;;;;;;4870906;29;20032;-62
2023/06/27 11:02:44;;;;;;;3.13;0.95;;;;;;;;;;4868163;29;20037;-62
2023/06/27 11:05:15;;;;;;;6.80;1.17;;;;;;;;;;4873127;29;20060;-62
2023/06/27 11:07:51;;;;;;;7.60;1.20;;;;;;;;;;4873282;29;20032;-62
2023/06/27 11:10:24;;;;;;;3.63;1.20;;;;;;;;;;4873439;29;20044;-62
2023/06/27 11:12:50;;;;;;;5.88;1.10;;;;;;;;;;4873873;29;20047;-62
2023/06/27 11:15:19;;;;;;;3.45;0.77;;;;;;;;;;4878138;29;20043;-62
2023/06/27 11:17:46;;;;;;;5.25;1.42;;;;;;;;;;4857919;29;20143;-62
2023/06/27 11:20:12;;;;;;;6.00;1.05;;;;;;;;;;4877992;29;20036;-62
2023/06/27 11:22:38;;;;;;;6.32;0.90;;;;;;;;;;4876375;29;20043;-62
2023/06/27 11:25:12;;;;;;;4.82;0.90;;;;;;;;;;4853072;29;20068;-62
2023/06/27 11:27:38;;;;;;;6.57;1.33;;;;;;;;;;4876615;29;20036;-62
2023/06/27 11:30:04;;;;;;;10.10;1.60;;;;;;;;;;4876331;29;20040;-62
2023/06/27 11:32:30;;;;;;;7.90;1.13;;;;;;;;;;4877815;29;20040;-62
2023/06/27 11:34:57;;;;;;;3.63;0.80;;;;;;;;;;4877149;29;20737;-62
2023/06/27 11:37:23;;;;;;;3.72;0.95;;;;;;;;;;4877871;29;20067;-62
2023/06/27 11:40:05;;;;;;;11.25;1.55;;;;;;;;;;4878891;29;20040;-62
2023/06/27 11:42:33;;;;;;;5.18;1.30;;;;;;;;;;4873525;29;20040;-62
2023/06/27 11:44:59;;;;;;;6.38;1.25;;;;;;;;;;4878075;29;20036;-62
2023/06/27 11:47:25;;;;;;;5.15;1.10;;;;;;;;;;4872011;29;20104;-62
2023/06/27 11:49:51;;;;;;;4.50;0.85;;;;;;;;;;4877349;29;20048;-62
2023/06/27 11:52:17;;;;;;;5.13;1.15;;;;;;;;;;4877697;29;20033;-63
2023/06/27 11:54:49;;;;;;;7.32;1.83;;;;;;;;;;4877518;29;20075;-62
2023/06/27 11:57:17;;;;;;;4.78;1.35;;;;;;;;;;4876777;29;20027;-62
2023/06/27 11:59:43;;;;;;;2.92;0.60;;;;;;;;;;4861239;29;21536;-62
2023/06/27 12:02:10;;;;;;;4.10;1.08;;;;;;;;;;4876784;29;20076;-63
2023/06/27 12:04:36;;;;;;;6.18;1.38;;;;;;;;;;4877038;29;20138;-63
2023/06/27 12:07:23;;;;;;;8.13;1.60;;;;;;;;;;4877885;29;20032;-63
2023/06/27 12:10:03;;;;;;;6.55;1.45;;;;;;;;;;4875646;29;20028;-63
2023/06/27 12:12:34;;;;;;;5.78;1.13;;;;;;;;;;4873660;29;20040;-62
2023/06/27 12:15:10;;;;;;;4.95;1.55;;;;;;;;;;4874033;29;20537;-63
2023/06/27 12:17:37;;;;;;;8.32;1.65;;;;;;;;;;4872827;29;20419;-63
2023/06/27 12:20:05;;;;;;;5.60;1.30;;;;;;;;;;4876584;29;20123;-62
2023/06/27 12:22:31;;;;;;;4.93;1.08;;;;;;;;;;4877000;29;20038;-62
2023/06/27 12:24:57;;;;;;;4.88;1.10;;;;;;;;;;4876139;29;20578;-62
2023/06/27 12:27:23;;;;;;;6.53;1.20;;;;;;;;;;4876370;29;20048;-62
2023/06/27 12:29:50;;;;;;;4.90;1.00;;;;;;;;;;4874903;29;20111;-62
2023/06/27 12:32:17;;;;;;;8.10;1.50;;;;;;;;;;4874278;29;20036;-62
2023/06/27 12:34:43;;;;;;;5.28;0.98;;;;;;;;;;4875000;29;20036;-62
2023/06/27 12:37:09;;;;;;;5.18;0.90;;;;;;;;;;4874986;29;20123;-63
2023/06/27 12:39:35;;;;;;;8.60;1.35;;;;;;;;;;4873573;29;20040;-62
2023/06/27 12:42:01;;;;;;;4.28;1.05;;;;;;;;;;4871713;29;20277;-63
2023/06/27 12:44:27;;;;;;;5.78;1.15;;;;;;;;;;4876669;29;20047;-63
2023/06/27 12:46:53;;;;;;;5.53;1.38;;;;;;;;;;4876014;29;20047;-62
2023/06/27 12:49:19;;;;;;;6.45;1.20;;;;;;;;;;4874977;29;20070;-63
2023/06/27 12:51:45;;;;;;;4.50;1.10;;;;;;;;;;4873374;29;20024;-63
2023/06/27 12:54:11;;;;;;;6.43;1.48;;;;;;;;;;4870362;29;20131;-63
2023/06/27 12:56:37;;;;;;;4.97;1.00;;;;;;;;;;4872607;29;20030;-63
2023/06/27 12:59:03;;;;;;;4.55;1.30;;;;;;;;;;4874666;29;20115;-63
2023/06/27 13:01:44;;;;;;;5.07;1.17;;;;;;;;;;4872772;29;20103;-63
2023/06/27 13:04:10;;;;;;;6.15;1.10;;;;;;;;;;4876773;29;20579;-63
2023/06/27 13:06:36;;;;;;;4.20;1.38;;;;;;;;;;4870796;29;20748;-63
2023/06/27 13:09:02;;;;;;;4.07;1.10;;;;;;;;;;4870197;29;20036;-63
2023/06/27 13:11:28;;;;;;;4.53;1.10;;;;;;;;;;4870774;29;20056;-63
2023/06/27 13:13:55;;;;;;;4.30;1.35;;;;;;;;;;4870735;29;20048;-63
2023/06/27 13:16:21;;;;;;;3.25;0.80;;;;;;;;;;4867672;29;20035;-63
2023/06/27 13:18:47;;;;;;;6.38;1.27;;;;;;;;;;4870963;29;20032;-63
2023/06/27 13:21:13;;;;;;;3.78;1.13;;;;;;;;;;4876543;29;20036;-63
2023/06/27 13:23:39;;;;;;;5.30;1.08;;;;;;;;;;4876952;29;20039;-63
2023/06/27 13:26:05;;;;;;;6.55;1.33;;;;;;;;;;4876550;29;20478;-63
2023/06/27 13:28:31;;;;;;;9.10;1.90;;;;;;;;;;4879312;29;20078;-63
2023/06/27 13:30:58;;;;;;;5.43;1.40;;;;;;;;;;4877706;29;20059;-63
2023/06/27 13:33:24;;;;;;;3.22;0.85;;;;;;;;;;4878061;29;20043;-63
2023/06/27 13:35:50;;;;;;;6.78;1.33;;;;;;;;;;4878451;29;20032;-63
2023/06/27 13:38:16;;;;;;;4.65;1.00;;;;;;;;;;4877602;29;20040;-63
2023/06/27 13:40:43;;;;;;;5.70;1.30;;;;;;;;;;4877607;29;20666;-63
2023/06/27 13:43:09;;;;;;;4.93;1.10;;;;;;;;;;4877688;29;20039;-63
2023/06/27 13:45:35;;;;;;;5.13;1.20;;;;;;;;;;4878982;29;20111;-64
2023/06/27 13:48:01;;;;;;;4.55;0.90;;;;;;;;;;4878671;29;20043;-63
2023/06/27 13:50:27;;;;;;;7.95;1.25;;;;;;;;;;4878721;29;20040;-63
2023/06/27 13:52:53;;;;;;;10.00;1.65;;;;;;;;;;4878697;29;20043;-63
2023/06/27 13:55:19;;;;;;;7.32;0.90;;;;;;;;;;4877513;29;20032;-63
2023/06/27 13:57:45;;;;;;;4.00;1.10;;;;;;;;;;4861061;29;20032;-63
2023/06/27 14:00:12;;;;;;;4.65;1.08;;;;;;;;;;4876695;29;20036;-63
2023/06/27 14:02:38;;;;;;;2.47;0.70;;;;;;;;;;4878544;29;20039;-63
2023/06/27 14:05:04;;;;;;;5.70;1.20;;;;;;;;;;4878495;29;20040;-63
2023/06/27 14:07:31;;;;;;;6.03;0.88;;;;;;;;;;4876242;29;20039;-63
2023/06/27 14:09:57;;;;;;;4.47;0.75;;;;;;;;;;4876827;29;20166;-63
2023/06/27 14:12:23;;;;;;;6.68;1.13;;;;;;;;;;4861168;29;20598;-63
2023/06/27 14:14:50;;;;;;;3.33;0.80;;;;;;;;;;4877799;29;20086;-63
2023/06/27 14:17:16;;;;;;;5.93;1.15;;;;;;;;;;4877264;29;20032;-63
2023/06/27 14:19:43;;;;;;;4.68;0.90;;;;;;;;;;4878455;29;20036;-63
2023/06/27 14:22:11;;;;;;;3.80;1.00;;;;;;;;;;4878058;29;20055;-63
2023/06/27 14:24:37;;;;;;;4.72;1.15;;;;;;;;;;4877771;29;20040;-63
2023/06/27 14:27:03;;;;;;;5.50;0.93;;;;;;;;;;4876498;29;20040;-63
2023/06/27 14:29:29;;;;;;;4.85;1.48;;;;;;;;;;4877371;29;20052;-63
2023/06/27 14:31:55;;;;;;;5.03;1.17;;;;;;;;;;4858210;29;20044;-63
2023/06/27 14:34:21;;;;;;;6.55;1.30;;;;;;;;;;4878415;29;20044;-63
2023/06/27 14:36:51;;;;;;;5.30;0.98;;;;;;;;;;4878306;29;20040;-63
2023/06/27 14:39:18;;;;;;;2.80;0.80;;;;;;;;;;4879513;29;20795;-63
2023/06/27 14:41:44;;;;;;;4.32;1.30;;;;;;;;;;4881386;29;20044;-63
2023/06/27 14:44:10;;;;;;;5.28;0.85;;;;;;;;;;4881091;29;20051;-63